Time;durP1;ratioP1;P1;durP2;ratioP2;P2;SDS_P1;SDS_P2;PMS_P1;PMS_P2;Temp;Humidity;BMP_temperature;BMP_pressure;BME280_temperature;BME280_humidity;BME280_pressure;Samples;Min_cycle;Max_cycle;Signal;HPM_P1;HPM_P2
2022/07/29 00:02:26;;;;;;;;;;;;;;;22.02;46.42;101603.81;7284136;19;151935;-69
2022/07/29 00:04:53;;;;;;;;;;;;;;;21.97;46.34;101597.41;7275991;19;152217;-69
2022/07/29 00:07:20;;;;;;;;;;;;;;;22.03;46.04;101596.19;7281500;19;154385;-69
2022/07/29 00:09:46;;;;;;;;;;;;;;;22.10;45.93;101594.69;7281147;19;152542;-69
2022/07/29 00:12:21;;;;;;;;;;;;;;;22.03;46.51;101605.44;7281143;19;153586;-68
2022/07/29 00:14:55;;;;;;;;;;;;;;;22.01;46.43;101595.66;7283822;19;154641;-68
2022/07/29 00:17:23;;;;;;;;;;;;;;;22.02;46.48;101592.56;7290236;19;151718;-69
2022/07/29 00:19:49;;;;;;;;;;;;;;;21.98;46.40;101590.66;7284582;19;152909;-68
2022/07/29 00:22:16;;;;;;;;;;;;;;;21.96;46.68;101599.38;7294698;19;153899;-70
2022/07/29 00:24:43;;;;;;;;;;;;;;;21.92;47.00;101603.06;7288118;19;153486;-68
2022/07/29 00:27:10;;;;;;;;;;;;;;;21.94;46.67;101596.00;7287048;19;154080;-69
2022/07/29 00:29:36;;;;;;;;;;;;;;;21.95;46.55;101589.25;7288196;19;151879;-68
2022/07/29 00:32:03;;;;;;;;;;;;;;;21.93;46.61;101585.91;7287254;19;152186;-68
2022/07/29 00:37:15;;;;;;;;;;;;;;;21.96;46.82;101584.47;7288733;19;152750;-69
2022/07/29 00:39:42;;;;;;;;;;;;;;;21.98;47.10;101583.03;7287409;19;153574;-69
2022/07/29 00:42:09;;;;;;;;;;;;;;;21.96;46.81;101585.31;7287772;19;153575;-69
2022/07/29 00:44:40;;;;;;;;;;;;;;;21.97;47.21;101577.72;7291711;19;152903;-69
2022/07/29 00:47:07;;;;;;;;;;;;;;;21.93;47.48;101574.66;7286741;19;153868;-68
2022/07/29 00:49:34;;;;;;;;;;;;;;;22.01;47.11;101562.72;7285924;19;152142;-68
2022/07/29 00:52:02;;;;;;;;;;;;;;;21.93;47.15;101566.22;7286551;19;152663;-68
2022/07/29 00:54:29;;;;;;;;;;;;;;;21.88;47.35;101571.06;7286051;19;154568;-69
2022/07/29 00:56:59;;;;;;;;;;;;;;;21.89;47.73;101567.09;7288140;19;153344;-68
2022/07/29 00:59:26;;;;;;;;;;;;;;;21.81;47.64;101567.75;7287820;19;152773;-69
2022/07/29 01:02:00;;;;;;;;;;;;;;;21.89;47.62;101569.91;7284708;19;152610;-67
2022/07/29 01:04:29;;;;;;;;;;;;;;;21.86;47.99;101567.69;7290347;19;152561;-68
2022/07/29 01:06:56;;;;;;;;;;;;;;;21.84;47.95;101565.19;7286826;19;153311;-69
2022/07/29 01:09:23;;;;;;;;;;;;;;;21.84;47.57;101567.16;7287194;19;152100;-69
2022/07/29 01:12:10;;;;;;;;;;;;;;;21.81;48.00;101564.94;7285786;19;155473;-68
2022/07/29 01:14:37;;;;;;;;;;;;;;;21.79;48.33;101555.97;7285661;19;153482;-68
2022/07/29 01:17:11;;;;;;;;;;;;;;;21.78;48.13;101555.16;7288597;19;153755;-68
2022/07/29 01:19:41;;;;;;;;;;;;;;;21.86;48.03;101562.06;7284742;19;152915;-69
2022/07/29 01:22:21;;;;;;;;;;;;;;;21.82;48.41;101566.63;7284771;19;154390;-69
2022/07/29 01:25:05;;;;;;;;;;;;;;;21.78;48.06;101562.75;7283318;19;151874;-69
2022/07/29 01:27:32;;;;;;;;;;;;;;;21.78;48.17;101565.56;7294164;19;153964;-69
2022/07/29 01:29:59;;;;;;;;;;;;;;;21.76;48.55;101574.28;7286650;19;151965;-68
2022/07/29 01:32:27;;;;;;;;;;;;;;;21.71;48.93;101563.13;7284269;19;152215;-69
2022/07/29 01:34:57;;;;;;;;;;;;;;;21.73;48.51;101569.28;7279073;19;154068;-69
2022/07/29 01:37:39;;;;;;;;;;;;;;;21.72;48.73;101581.66;7284879;19;151818;-68
2022/07/29 01:40:11;;;;;;;;;;;;;;;21.71;48.55;101575.19;7286777;19;152524;-68
2022/07/29 01:42:50;;;;;;;;;;;;;;;21.73;48.80;101572.94;7285744;19;153309;-69
2022/07/29 01:45:16;;;;;;;;;;;;;;;21.72;48.72;101567.59;7284377;19;152708;-68
2022/07/29 01:48:01;;;;;;;;;;;;;;;21.73;48.57;101564.50;7286503;19;152482;-68
2022/07/29 01:50:35;;;;;;;;;;;;;;;21.73;48.71;101561.69;7289737;19;153292;-69
2022/07/29 01:53:04;;;;;;;;;;;;;;;21.76;48.63;101565.03;7284985;19;152975;-68
2022/07/29 01:55:40;;;;;;;;;;;;;;;21.72;49.05;101561.97;7285359;19;154120;-69
2022/07/29 01:58:07;;;;;;;;;;;;;;;21.70;48.93;101561.44;7286126;19;152007;-69
2022/07/29 02:00:34;;;;;;;;;;;;;;;21.69;49.21;101560.59;7280158;19;153119;-69
2022/07/29 02:03:03;;;;;;;;;;;;;;;21.67;48.99;101568.50;7284397;19;154068;-69
2022/07/29 02:05:31;;;;;;;;;;;;;;;21.66;49.42;101566.00;7283939;19;152476;-68
2022/07/29 02:07:58;;;;;;;;;;;;;;;21.68;49.38;101558.94;7283366;19;153868;-69
2022/07/29 02:10:27;;;;;;;;;;;;;;;21.65;49.35;101555.88;7283426;19;153224;-69
2022/07/29 02:12:55;;;;;;;;;;;;;;;21.69;49.23;101560.59;7292343;19;152306;-68
2022/07/29 02:15:24;;;;;;;;;;;;;;;21.73;48.95;101558.03;7284699;19;153884;-68
2022/07/29 02:17:53;;;;;;;;;;;;;;;21.63;49.32;101553.38;7286159;19;152119;-69
2022/07/29 02:20:22;;;;;;;;;;;;;;;21.65;49.70;101556.72;7282782;19;154715;-68
2022/07/29 02:22:50;;;;;;;;;;;;;;;21.62;49.73;101562.94;7283131;19;154103;-69
2022/07/29 02:25:17;;;;;;;;;;;;;;;21.73;49.48;101558.03;7285380;19;151648;-68
2022/07/29 02:27:44;;;;;;;;;;;;;;;21.62;49.69;101560.13;7284818;19;153535;-68
2022/07/29 02:30:12;;;;;;;;;;;;;;;21.62;49.61;101562.94;7282308;19;152214;-69
2022/07/29 02:32:39;;;;;;;;;;;;;;;21.71;49.21;101563.94;7282559;19;154697;-68
2022/07/29 02:35:07;;;;;;;;;;;;;;;21.62;49.41;101564.94;7289014;19;152252;-68
2022/07/29 02:37:36;;;;;;;;;;;;;;;21.60;49.97;101561.56;7283479;19;152297;-68
2022/07/29 02:40:03;;;;;;;;;;;;;;;21.59;49.83;101565.50;7283759;19;153528;-67
2022/07/29 02:42:31;;;;;;;;;;;;;;;21.61;49.76;101568.88;7283778;19;154395;-69
2022/07/29 02:44:57;;;;;;;;;;;;;;;21.56;50.04;101563.31;7285400;19;151664;-69
2022/07/29 02:47:30;;;;;;;;;;;;;;;21.62;49.71;101564.94;7284901;19;152754;-68
2022/07/29 02:50:19;;;;;;;;;;;;;;;21.56;49.86;101566.97;7281108;19;153315;-68
2022/07/29 02:52:48;;;;;;;;;;;;;;;21.52;50.31;101567.88;7282744;19;152033;-68
2022/07/29 02:55:26;;;;;;;;;;;;;;;21.53;49.91;101561.94;7282242;19;152585;-69
2022/07/29 02:58:11;;;;;;;;;;;;;;;21.55;49.96;101570.91;7291299;19;152842;-68
2022/07/29 03:00:40;;;;;;;;;;;;;;;21.54;50.32;101566.41;7284102;19;152171;-68
2022/07/29 03:03:08;;;;;;;;;;;;;;;21.52;50.41;101565.06;7282937;19;153606;-68
2022/07/29 03:05:35;;;;;;;;;;;;;;;21.50;50.35;101565.34;7280686;19;152402;-69
2022/07/29 03:08:05;;;;;;;;;;;;;;;21.56;50.02;101566.97;7284170;19;152671;-68
2022/07/29 03:10:32;;;;;;;;;;;;;;;21.60;49.80;101564.38;7282875;19;152917;-68
2022/07/29 03:13:00;;;;;;;;;;;;;;;21.54;50.28;101562.75;7281954;19;152048;-69
2022/07/29 03:15:27;;;;;;;;;;;;;;;21.52;50.48;101568.72;7284642;19;152555;-69
2022/07/29 03:17:55;;;;;;;;;;;;;;;21.49;50.10;101563.66;7290357;19;154137;-69
2022/07/29 03:20:22;;;;;;;;;;;;;;;21.49;50.12;101571.25;7280590;19;152220;-68
2022/07/29 03:22:49;;;;;;;;;;;;;;;21.48;50.53;101566.81;7282711;19;153968;-69
2022/07/29 03:25:17;;;;;;;;;;;;;;;21.45;50.27;101578.63;7283693;19;151688;-69
2022/07/29 03:27:45;;;;;;;;;;;;;;;21.45;50.36;101581.44;7282787;19;152395;-69
2022/07/29 03:30:12;;;;;;;;;;;;;;;21.47;50.39;101584.78;7281850;19;152850;-68
2022/07/29 03:32:47;;;;;;;;;;;;;;;21.42;50.21;101582.88;7283329;19;152206;-68
2022/07/29 03:35:16;;;;;;;;;;;;;;;21.40;50.38;101576.72;7280999;19;153414;-69
2022/07/29 03:37:43;;;;;;;;;;;;;;;21.40;50.49;101585.16;7282099;19;152380;-69
2022/07/29 03:40:13;;;;;;;;;;;;;;;21.37;50.45;101574.50;7290616;19;152142;-69
2022/07/29 03:42:42;;;;;;;;;;;;;;;21.35;50.63;101571.13;7283198;19;153630;-68
2022/07/29 03:45:10;;;;;;;;;;;;;;;21.37;50.34;101576.47;7283505;19;153705;-69
2022/07/29 03:47:40;;;;;;;;;;;;;;;21.35;50.55;101565.53;7283977;19;153172;-69
2022/07/29 03:50:19;;;;;;;;;;;;;;;21.33;50.43;101573.44;7287173;19;153312;-70
2022/07/29 03:52:46;;;;;;;;;;;;;;;21.35;50.51;101571.13;7289041;19;152900;-69
2022/07/29 03:55:13;;;;;;;;;;;;;;;21.32;50.90;101571.75;7289396;19;153757;-68
2022/07/29 03:57:41;;;;;;;;;;;;;;;21.32;50.83;101573.72;7286668;19;152594;-68
2022/07/29 04:00:08;;;;;;;;;;;;;;;21.31;50.89;101567.25;7290001;19;151858;-68
2022/07/29 04:02:35;;;;;;;;;;;;;;;21.32;50.42;101571.75;7295566;19;152330;-68
2022/07/29 04:05:02;;;;;;;;;;;;;;;21.29;50.53;101567.56;7285231;19;153712;-69
2022/07/29 04:07:29;;;;;;;;;;;;;;;21.32;50.42;101583.00;7289186;19;152334;-69
2022/07/29 04:09:56;;;;;;;;;;;;;;;21.31;50.54;101575.69;7287725;19;154514;-68
2022/07/29 04:12:24;;;;;;;;;;;;;;;21.29;50.65;101577.97;7289037;19;152293;-69
2022/07/29 04:14:51;;;;;;;;;;;;;;;21.30;51.03;101576.84;7286808;19;153543;-69
2022/07/29 04:17:18;;;;;;;;;;;;;;;21.27;50.97;101574.63;7288120;19;154786;-69
2022/07/29 04:19:45;;;;;;;;;;;;;;;21.21;50.84;101581.44;7286499;19;153109;-69
2022/07/29 04:22:12;;;;;;;;;;;;;;;21.27;50.97;101574.63;7286186;19;153297;-69
2022/07/29 04:24:38;;;;;;;;;;;;;;;21.24;51.19;101578.88;7292625;19;154041;-68
2022/07/29 04:27:09;;;;;;;;;;;;;;;21.24;51.10;101581.69;7288923;19;152762;-69
2022/07/29 04:29:36;;;;;;;;;;;;;;;21.26;50.55;101585.00;7285750;19;153443;-68
2022/07/29 04:32:22;;;;;;;;;;;;;;;21.23;51.19;101579.16;7288540;19;152895;-68
2022/07/29 04:34:49;;;;;;;;;;;;;;;21.23;51.17;101585.63;7283672;19;152117;-68
2022/07/29 04:37:16;;;;;;;;;;;;;;;21.21;51.10;101584.25;7286780;19;154395;-69
2022/07/29 04:39:43;;;;;;;;;;;;;;;21.22;51.11;101583.09;7288402;19;153782;-68
2022/07/29 04:42:10;;;;;;;;;;;;;;;21.20;51.08;101583.41;7288257;19;153043;-68
2022/07/29 04:44:36;;;;;;;;;;;;;;;21.19;50.97;101576.13;7287276;19;153498;-68
2022/07/29 04:47:08;;;;;;;;;;;;;;;21.18;51.34;101587.66;7296239;19;152340;-69
2022/07/29 04:49:37;;;;;;;;;;;;;;;21.17;51.44;101580.34;7282554;19;153799;-68
2022/07/29 04:52:04;;;;;;;;;;;;;;;21.19;51.19;101583.69;7288506;19;152925;-68
2022/07/29 04:54:31;;;;;;;;;;;;;;;21.20;51.43;101585.38;7284826;19;153342;-68
2022/07/29 04:56:58;;;;;;;;;;;;;;;21.20;51.10;101591.84;7287861;19;155387;-68
2022/07/29 04:59:26;;;;;;;;;;;;;;;21.15;51.58;101582.63;7287337;19;152431;-70
2022/07/29 05:01:53;;;;;;;;;;;;;;;21.18;51.27;101585.69;7287363;19;154775;-69
2022/07/29 05:04:20;;;;;;;;;;;;;;;21.16;51.35;101584.31;7281771;19;152746;-69
2022/07/29 05:06:47;;;;;;;;;;;;;;;21.13;51.73;101579.25;7295765;19;152645;-68
2022/07/29 05:09:14;;;;;;;;;;;;;;;21.11;51.59;101587.97;7285990;19;152260;-68
2022/07/29 05:11:41;;;;;;;;;;;;;;;21.13;51.35;101579.25;7287746;19;151934;-69
2022/07/29 05:14:07;;;;;;;;;;;;;;;21.11;51.64;101573.94;7284186;19;152021;-69
2022/07/29 05:16:34;;;;;;;;;;;;;;;21.11;51.40;101576.75;7285650;19;155578;-68
2022/07/29 05:19:02;;;;;;;;;;;;;;;21.13;51.53;101568.88;7282278;19;151855;-69
2022/07/29 05:21:29;;;;;;;;;;;;;;;21.13;51.42;101573.63;7286416;19;154205;-68
2022/07/29 05:23:56;;;;;;;;;;;;;;;21.12;51.68;101575.59;7285349;19;153907;-69
2022/07/29 05:26:23;;;;;;;;;;;;;;;21.10;51.88;101575.06;7287537;19;152000;-69
2022/07/29 05:28:49;;;;;;;;;;;;;;;21.13;51.81;101588.53;7292548;19;153246;-68
2022/07/29 05:31:16;;;;;;;;;;;;;;;21.11;52.03;101593.59;7284404;19;153271;-69
2022/07/29 05:33:43;;;;;;;;;;;;;;;21.09;51.80;101590.22;7285020;19;154533;-69
2022/07/29 05:36:12;;;;;;;;;;;;;;;21.09;51.84;101586.59;7284945;19;155412;-69
2022/07/29 05:38:39;;;;;;;;;;;;;;;21.12;51.81;101595.25;7287381;19;153176;-69
2022/07/29 05:41:06;;;;;;;;;;;;;;;21.15;52.11;101588.25;7286811;19;152386;-68
2022/07/29 05:43:33;;;;;;;;;;;;;;;21.11;51.79;101587.97;7284739;19;154314;-68
2022/07/29 05:46:00;;;;;;;;;;;;;;;21.13;51.76;101588.53;7287189;19;152472;-68
2022/07/29 05:48:27;;;;;;;;;;;;;;;21.15;52.03;101591.06;7282913;19;153790;-68
2022/07/29 05:50:54;;;;;;;;;;;;;;;21.12;52.19;101597.25;7292360;19;155112;-68
2022/07/29 05:53:21;;;;;;;;;;;;;;;21.14;52.30;101592.19;7284295;19;154389;-68
2022/07/29 05:55:48;;;;;;;;;;;;;;;21.13;52.11;101591.34;7286652;19;153769;-68
2022/07/29 05:58:15;;;;;;;;;;;;;;;21.12;52.51;101598.06;7286393;19;152158;-68
2022/07/29 06:00:42;;;;;;;;;;;;;;;21.12;52.44;101592.44;7282855;19;153357;-68
2022/07/29 06:03:09;;;;;;;;;;;;;;;21.09;52.80;101597.81;7283118;19;152823;-68
2022/07/29 06:05:36;;;;;;;;;;;;;;;21.13;52.61;101602.59;7283299;19;151787;-69
2022/07/29 06:08:05;;;;;;;;;;;;;;;21.16;52.48;101602.00;7285836;19;152337;-68
2022/07/29 06:10:32;;;;;;;;;;;;;;;21.15;52.71;101605.09;7284149;19;153187;-68
2022/07/29 06:12:59;;;;;;;;;;;;;;;21.15;52.75;101607.91;7290502;19;154267;-69
2022/07/29 06:15:26;;;;;;;;;;;;;;;21.13;53.16;101610.19;7282405;19;153732;-68
2022/07/29 06:17:52;;;;;;;;;;;;;;;21.13;52.94;101613.81;7285397;19;151793;-68
2022/07/29 06:20:29;;;;;;;;;;;;;;;21.15;52.66;101616.34;7283009;19;153002;-68
2022/07/29 06:22:57;;;;;;;;;;;;;;;21.18;52.80;101627.81;7284556;19;153692;-69
2022/07/29 06:25:23;;;;;;;;;;;;;;;21.15;53.41;101627.59;7285422;19;151780;-68
2022/07/29 06:27:50;;;;;;;;;;;;;;;21.33;52.96;101626.84;7286036;19;153037;-68
2022/07/29 06:30:17;;;;;;;;;;;;;;;21.21;53.36;101623.59;7284394;19;152195;-69
2022/07/29 06:32:44;;;;;;;;;;;;;;;21.21;53.42;101627.22;7284863;19;152787;-68
2022/07/29 06:35:11;;;;;;;;;;;;;;;21.22;53.53;101625.25;7287293;19;153547;-69
2022/07/29 06:37:58;;;;;;;;;;;;;;;21.21;53.26;101626.41;7284156;19;152123;-68
2022/07/29 06:43:11;;;;;;;;;;;;;;;21.26;53.46;101629.16;7284797;19;154537;-68
2022/07/29 06:45:40;;;;;;;;;;;;;;;21.20;54.05;101628.38;7283486;19;154578;-69
2022/07/29 06:48:08;;;;;;;;;;;;;;;21.24;53.95;101620.19;7285584;19;155031;-68
2022/07/29 06:50:35;;;;;;;;;;;;;;;21.20;53.90;101617.13;7280146;19;153481;-68
2022/07/29 06:53:02;;;;;;;;;;;;;;;21.26;53.89;101620.72;7285647;19;151884;-69
2022/07/29 06:55:29;;;;;;;;;;;;;;;21.24;54.11;101620.19;7280711;19;152866;-68
2022/07/29 06:57:56;;;;;;;;;;;;;;;21.19;54.36;101625.88;7291617;19;152314;-68
2022/07/29 07:00:23;;;;;;;;;;;;;;;21.21;54.30;101621.59;7283539;19;152348;-69
2022/07/29 07:02:50;;;;;;;;;;;;;;;21.24;54.50;101626.66;7283087;19;153334;-68
2022/07/29 07:05:18;;;;;;;;;;;;;;;21.24;54.60;101623.84;7275532;19;153040;-68
2022/07/29 07:07:44;;;;;;;;;;;;;;;21.26;54.47;101624.38;7282730;19;152473;-67
2022/07/29 07:10:11;;;;;;;;;;;;;;;21.27;54.23;101619.59;7283674;19;155807;-68
2022/07/29 07:12:38;;;;;;;;;;;;;;;21.26;54.72;101624.38;7284179;19;152103;-68
2022/07/29 07:15:05;;;;;;;;;;;;;;;21.28;54.52;101619.28;7280998;19;152569;-69
2022/07/29 07:17:32;;;;;;;;;;;;;;;21.28;54.45;101622.13;7289556;19;153568;-68
2022/07/29 07:19:59;;;;;;;;;;;;;;;21.27;54.87;101628.03;7281312;19;153476;-68
2022/07/29 07:22:26;;;;;;;;;;;;;;;21.34;54.56;101628.53;7279429;19;153275;-69
2022/07/29 07:24:53;;;;;;;;;;;;;;;21.32;54.82;101638.38;7283131;19;151689;-68
2022/07/29 07:27:20;;;;;;;;;;;;;;;21.45;54.46;101643.28;7281766;19;152486;-71
2022/07/29 07:29:46;;;;;;;;;;;;;;;21.44;54.49;101636.81;7282528;19;153774;-68
2022/07/29 07:32:15;;;;;;;;;;;;;;;21.40;54.91;101644.19;7283302;19;151908;-68
2022/07/29 07:34:43;;;;;;;;;;;;;;;21.54;54.63;101647.97;7277761;19;153492;-68
2022/07/29 07:37:10;;;;;;;;;;;;;;;21.46;54.95;101644.97;7282537;19;153750;-69
2022/07/29 07:39:37;;;;;;;;;;;;;;;21.42;55.01;101647.53;7288478;19;151995;-69
2022/07/29 07:42:03;;;;;;;;;;;;;;;21.38;55.01;101648.44;7280328;19;154569;-70
2022/07/29 07:44:30;;;;;;;;;;;;;;;21.52;54.46;101649.41;7282941;19;152138;-69
2022/07/29 07:46:58;;;;;;;;;;;;;;;21.37;55.08;101647.59;7280567;19;153340;-69
2022/07/29 07:49:34;;;;;;;;;;;;;;;21.47;54.86;101650.31;7279641;19;154880;-68
2022/07/29 07:52:00;;;;;;;;;;;;;;;21.40;54.80;101648.97;7282554;19;152054;-69
2022/07/29 07:54:27;;;;;;;;;;;;;;;21.42;54.97;101647.53;7280161;19;152624;-69
2022/07/29 07:56:54;;;;;;;;;;;;;;;21.43;54.73;101651.19;7282828;19;153444;-69
2022/07/29 07:59:21;;;;;;;;;;;;;;;21.42;54.61;101652.31;7283248;19;151855;-68
2022/07/29 08:01:48;;;;;;;;;;;;;;;21.42;54.45;101643.91;7288601;19;153789;-69
2022/07/29 08:04:22;;;;;;;;;;;;;;;21.40;54.82;101647.00;7277175;19;153066;-68
2022/07/29 08:06:54;;;;;;;;;;;;;;;21.40;54.33;101641.38;7281308;19;153182;-68
2022/07/29 08:09:22;;;;;;;;;;;;;;;21.37;54.08;101646.75;7279273;19;153496;-69
2022/07/29 08:11:57;;;;;;;;;;;;;;;21.41;53.58;101643.06;7282265;19;152083;-69
2022/07/29 08:14:24;;;;;;;;;;;;;;;21.42;53.21;101643.91;7281573;19;153562;-69
2022/07/29 08:16:51;;;;;;;;;;;;;;;21.44;53.05;101648.06;7279310;19;153541;-68
2022/07/29 08:19:18;;;;;;;;;;;;;;;21.44;52.68;101652.88;7279426;19;153210;-68
2022/07/29 08:21:45;;;;;;;;;;;;;;;21.42;52.45;101646.69;7282769;19;152306;-68
2022/07/29 08:26:56;;;;;;;;;;;;;;;21.46;51.76;101656.22;7282379;19;152798;-68
2022/07/29 08:29:24;;;;;;;;;;;;;;;21.47;51.81;101653.13;7281482;19;153919;-68
2022/07/29 08:31:51;;;;;;;;;;;;;;;21.49;50.96;101653.63;7279787;19;152073;-69
2022/07/29 08:34:18;;;;;;;;;;;;;;;21.53;50.78;101646.28;7281237;19;153540;-69
2022/07/29 08:36:53;;;;;;;;;;;;;;;21.50;50.97;101657.28;7287039;19;154292;-68
2022/07/29 08:39:20;;;;;;;;;;;;;;;21.46;50.87;101648.63;7288516;19;152559;-68
2022/07/29 08:41:47;;;;;;;;;;;;;;;21.49;50.62;101653.63;7288822;19;153508;-69
2022/07/29 08:44:23;;;;;;;;;;;;;;;21.49;50.39;101648.00;7287459;19;153121;-69
2022/07/29 08:46:56;;;;;;;;;;;;;;;21.52;50.35;101655.88;7295425;19;152363;-68
2022/07/29 08:49:23;;;;;;;;;;;;;;;21.52;50.26;101647.44;7284549;19;152965;-68
2022/07/29 08:51:51;;;;;;;;;;;;;;;21.60;50.15;101649.59;7285661;19;153277;-69
2022/07/29 08:54:18;;;;;;;;;;;;;;;21.56;49.93;101651.31;7287604;19;152756;-68
2022/07/29 08:56:49;;;;;;;;;;;;;;;21.53;49.88;101646.28;7286975;19;154027;-69
2022/07/29 08:59:17;;;;;;;;;;;;;;;21.53;50.52;101645.47;7286892;19;151858;-68
2022/07/29 09:01:46;;;;;;;;;;;;;;;21.53;50.30;101642.66;7288369;19;152236;-69
2022/07/29 09:04:14;;;;;;;;;;;;;;;21.50;50.43;101638.44;7282684;19;152852;-68
2022/07/29 09:06:47;;;;;;;;;;;;;;;21.53;50.15;101639.84;7287731;19;153100;-69
2022/07/29 09:09:14;;;;;;;;;;;;;;;21.58;50.14;101648.19;7292970;19;152732;-69
2022/07/29 09:11:42;;;;;;;;;;;;;;;21.55;49.96;101635.59;7288546;19;152187;-69
2022/07/29 09:14:10;;;;;;;;;;;;;;;21.59;49.25;101645.09;7286889;19;154043;-68
2022/07/29 09:17:04;;;;;;;;;;;;;;;21.60;49.21;101640.31;7284598;19;153552;-69
2022/07/29 09:19:36;;;;;;;;;;;;;;;21.64;48.63;101645.03;7283018;19;154827;-69
2022/07/29 09:22:04;;;;;;;;;;;;;;;21.65;48.10;101643.91;7287573;19;152916;-69
2022/07/29 09:24:34;;;;;;;;;;;;;;;21.65;48.62;101640.25;7285735;19;154090;-69
2022/07/29 09:27:02;;;;;;;;;;;;;;;21.67;47.80;101647.25;7287639;19;151761;-68
2022/07/29 09:29:28;;;;;;;;;;;;;;;21.69;47.69;101632.91;7293848;19;153323;-69
2022/07/29 09:32:05;;;;;;;;;;;;;;;21.74;48.15;101630.88;7286904;19;151600;-68
2022/07/29 09:34:32;;;;;;;;;;;;;;;21.71;47.92;101634.25;7285561;19;152876;-68
2022/07/29 09:36:59;;;;;;;;;;;;;;;21.78;47.14;101635.88;7284529;19;154810;-69
2022/07/29 09:39:30;;;;;;;;;;;;;;;21.76;47.38;101638.97;7286896;19;152734;-70
2022/07/29 09:41:59;;;;;;;;;;;;;;;21.75;47.23;101637.34;7285035;19;152820;-69
2022/07/29 09:44:26;;;;;;;;;;;;;;;21.78;47.46;101636.72;7283389;19;152346;-69
2022/07/29 09:46:57;;;;;;;;;;;;;;;21.80;47.82;101636.44;7284583;19;152567;-68
2022/07/29 09:49:25;;;;;;;;;;;;;;;21.81;47.37;101629.66;7282438;19;152131;-69
2022/07/29 09:52:03;;;;;;;;;;;;;;;21.82;47.35;101637.78;7292667;19;155214;-69
2022/07/29 09:54:36;;;;;;;;;;;;;;;21.87;47.40;101639.69;7284888;19;153617;-69
2022/07/29 09:57:04;;;;;;;;;;;;;;;21.89;47.81;101640.25;7282052;19;153160;-68
2022/07/29 09:59:31;;;;;;;;;;;;;;;21.93;47.44;101630.94;7285188;19;152079;-68
2022/07/29 10:01:58;;;;;;;;;;;;;;;21.96;47.86;101627.50;7286372;19;153412;-68
2022/07/29 10:04:38;;;;;;;;;;;;;;;22.01;47.85;101641.53;7279757;19;152934;-69
2022/07/29 10:07:06;;;;;;;;;;;;;;;22.04;47.99;101632.47;7286200;19;152094;-69
2022/07/29 10:09:33;;;;;;;;;;;;;;;22.07;47.67;101633.84;7283687;19;152225;-69
2022/07/29 10:12:10;;;;;;;;;;;;;;;22.11;47.64;101627.31;7282930;19;152599;-68
2022/07/29 10:14:38;;;;;;;;;;;;;;;22.14;47.80;101629.50;7292214;19;152733;-69
2022/07/29 10:17:06;;;;;;;;;;;;;;;22.16;47.78;101624.44;7280788;19;153328;-68
2022/07/29 10:19:33;;;;;;;;;;;;;;;22.22;47.55;101624.34;7282072;19;152892;-68
2022/07/29 10:22:01;;;;;;;;;;;;;;;22.26;47.58;101628.25;7286303;19;153032;-69
2022/07/29 10:24:29;;;;;;;;;;;;;;;22.27;47.89;101630.72;7282864;19;152900;-69
2022/07/29 10:26:56;;;;;;;;;;;;;;;22.30;47.84;101623.69;7285458;19;151879;-69
2022/07/29 10:29:24;;;;;;;;;;;;;;;22.33;47.43;101628.69;7285075;19;152890;-69
2022/07/29 10:31:57;;;;;;;;;;;;;;;22.36;47.17;101626.09;7284527;19;153887;-68
2022/07/29 10:34:30;;;;;;;;;;;;;;;22.39;47.20;101619.03;7281189;19;151935;-70
2022/07/29 10:37:12;;;;;;;;;;;;;;;22.40;46.92;101621.53;7286804;19;153353;-69
2022/07/29 10:40:00;;;;;;;;;;;;;;;22.42;47.04;101624.88;7283594;19;152514;-68
2022/07/29 10:42:29;;;;;;;;;;;;;;;22.47;46.84;101638.91;7284747;19;154197;-69
2022/07/29 10:45:01;;;;;;;;;;;;;;;22.54;47.06;101627.22;7284481;19;154055;-69
2022/07/29 10:47:30;;;;;;;;;;;;;;;22.56;46.61;101627.78;7284930;19;152342;-69
2022/07/29 10:50:02;;;;;;;;;;;;;;;22.54;47.08;101630.03;7282806;19;152420;-69
2022/07/29 10:52:47;;;;;;;;;;;;;;;22.58;46.75;101628.28;7284568;19;153369;-69
2022/07/29 10:55:34;;;;;;;;;;;;;;;22.63;47.06;101626.22;7285248;19;152477;-69
2022/07/29 10:58:12;;;;;;;;;;;;;;;22.65;46.95;101627.91;7283915;19;152847;-69
2022/07/29 11:00:39;;;;;;;;;;;;;;;22.66;46.84;101621.16;7291391;19;153290;-68
2022/07/29 11:03:05;;;;;;;;;;;;;;;22.72;46.78;101619.94;7284863;19;154489;-69
2022/07/29 11:05:53;;;;;;;;;;;;;;;22.74;47.08;101626.94;7277167;19;154153;-69
2022/07/29 11:08:23;;;;;;;;;;;;;;;22.72;46.69;101617.94;7283832;19;152127;-71
2022/07/29 11:10:53;;;;;;;;;;;;;;;22.75;47.27;101622.16;7282552;19;151925;-69
2022/07/29 11:13:38;;;;;;;;;;;;;;;22.75;46.95;101624.97;7283913;19;153310;-69
2022/07/29 11:16:08;;;;;;;;;;;;;;;22.78;47.33;101627.16;7282089;19;151823;-70
2022/07/29 11:18:36;;;;;;;;;;;;;;;22.76;47.25;101623.84;7282514;19;153683;-68
2022/07/29 11:21:25;;;;;;;;;;;;;;;22.80;46.85;101627.69;7281600;19;154251;-69
2022/07/29 11:24:13;;;;;;;;;;;;;;;22.82;46.91;101628.22;7290607;19;152689;-69
2022/07/29 11:27:11;;;;;;;;;;;;;;;22.83;46.46;101625.09;7281879;19;153596;-71
2022/07/29 11:29:49;;;;;;;;;;;;;;;22.86;46.17;101634.91;7281393;19;152269;-68
2022/07/29 11:32:19;;;;;;;;;;;;;;;22.90;46.65;101619.06;7283432;19;154164;-69
2022/07/29 11:35:20;;;;;;;;;;;;;;;22.94;46.42;101626.59;7277682;19;156622;-69
2022/07/29 11:38:25;;;;;;;;;;;;;;;22.90;46.78;101624.69;7282721;19;151873;-70
2022/07/29 11:41:12;;;;;;;;;;;;;;;22.85;46.84;101627.63;7283637;19;152855;-69
2022/07/29 11:43:58;;;;;;;;;;;;;;;22.86;47.22;101623.63;7282519;19;153148;-69
2022/07/29 11:46:48;;;;;;;;;;;;;;;22.86;46.70;101615.19;7290759;19;151896;-70
2022/07/29 11:49:19;;;;;;;;;;;;;;;22.89;46.60;101623.03;7280300;19;153417;-69
2022/07/29 11:52:06;;;;;;;;;;;;;;;22.93;46.78;101619.28;7281522;19;151918;-69
2022/07/29 11:54:39;;;;;;;;;;;;;;;22.97;46.62;101614.72;7281766;19;155305;-69
2022/07/29 11:57:27;;;;;;;;;;;;;;;23.01;47.03;101615.75;7278870;19;156605;-68
2022/07/29 12:00:07;;;;;;;;;;;;;;;23.05;47.01;101618.78;7282202;19;152364;-69
2022/07/29 12:02:39;;;;;;;;;;;;;;;23.03;47.17;101612.66;7282776;19;155236;-68
2022/07/29 12:05:06;;;;;;;;;;;;;;;22.99;47.08;101617.19;7273555;19;154352;-68
2022/07/29 12:07:37;;;;;;;;;;;;;;;22.98;47.14;101619.22;7281076;19;152290;-68
2022/07/29 12:10:04;;;;;;;;;;;;;;;23.00;47.20;101618.88;7293653;19;152167;-69
2022/07/29 12:12:32;;;;;;;;;;;;;;;23.03;47.14;101616.28;7288923;19;152901;-68
2022/07/29 12:15:13;;;;;;;;;;;;;;;23.03;47.06;101612.66;7287821;19;152700;-68
2022/07/29 12:17:40;;;;;;;;;;;;;;;23.03;47.42;101621.09;7286700;19;152861;-68
2022/07/29 12:20:08;;;;;;;;;;;;;;;23.01;47.26;101614.94;7286380;19;152838;-69
2022/07/29 12:22:40;;;;;;;;;;;;;;;23.06;47.04;101614.84;7288920;19;153268;-68
2022/07/29 12:25:10;;;;;;;;;;;;;;;23.09;47.13;101616.19;7285456;19;152668;-68
2022/07/29 12:28:00;;;;;;;;;;;;;;;23.05;47.17;101608.34;7288843;19;151957;-69
2022/07/29 12:30:35;;;;;;;;;;;;;;;23.09;47.18;101604.91;7288661;19;153142;-69
2022/07/29 12:33:09;;;;;;;;;;;;;;;23.08;47.49;101604.06;7294061;19;153907;-69
2022/07/29 12:35:36;;;;;;;;;;;;;;;23.08;47.11;101598.44;7286034;19;152989;-69
2022/07/29 12:38:03;;;;;;;;;;;;;;;23.10;47.21;101600.94;7284543;19;152188;-69
2022/07/29 12:40:30;;;;;;;;;;;;;;;23.11;46.61;101597.00;7287348;19;152406;-70
2022/07/29 12:43:11;;;;;;;;;;;;;;;23.14;46.58;101597.19;7289029;19;153898;-69
2022/07/29 12:45:38;;;;;;;;;;;;;;;23.19;46.74;101591.47;7287131;19;153171;-69
2022/07/29 12:48:08;;;;;;;;;;;;;;;23.21;46.96;101586.38;7287722;19;151746;-69
2022/07/29 12:50:36;;;;;;;;;;;;;;;23.25;47.11;101597.84;7283422;19;154656;-69
2022/07/29 12:53:10;;;;;;;;;;;;;;;23.18;46.98;101584.16;7287320;19;153932;-69